Terminal Aerodrome Forecast
Issued by NWS Albany, NY

Home | Current Version | Previous Version | Text Only | Print | Product List | Glossary On
Versions: 1 2 3 4 5 6 7 8 9 10 11 12 13 14 15 16 17 18 19 20 21 22 23 24 25 26 27 28 29 30
602
FTUS41 KALY 291136
TAFGFL
TAF
KGFL 291136Z 2912/3012 36005KT P6SM SCT009 OVC015
      TEMPO 2912/2913 3SM -DZ BR BKN009 OVC015
     FM291400 35010G18KT P6SM OVC025
     FM291700 35015G25KT P6SM BKN035
     FM292200 34010G18KT P6SM BKN050
     FM300000 35006KT P6SM SCT050=

USA.gov is the U.S. government's official web portal to all federal, state and local government web resources and services.